RORS(METAR)
05/24 14:00
METAR RORS 240500Z 09014KT 9999 FEW037 28/18 Q1014 RMK 1CU037 A2995=
戻る
トップページへ戻る
IMOC Co,.Ltd.